sensor_id;sensor_type;location;lat;lon;timestamp;temperature;humidity
74617;DHT22;63123;50.906;4.198;2024-02-26T00:00:12;17.10;55.10
74617;DHT22;63123;50.906;4.198;2024-02-26T00:02:38;17.10;55.00
74617;DHT22;63123;50.906;4.198;2024-02-26T00:05:05;17.00;55.00
74617;DHT22;63123;50.906;4.198;2024-02-26T00:07:31;17.10;55.10
74617;DHT22;63123;50.906;4.198;2024-02-26T00:09:57;17.10;55.10
74617;DHT22;63123;50.906;4.198;2024-02-26T00:12:22;17.10;55.10
74617;DHT22;63123;50.906;4.198;2024-02-26T00:14:47;17.10;55.10
74617;DHT22;63123;50.906;4.198;2024-02-26T00:17:15;17.10;55.10
74617;DHT22;63123;50.906;4.198;2024-02-26T00:19:40;17.10;55.20
74617;DHT22;63123;50.906;4.198;2024-02-26T00:22:06;17.00;55.20
74617;DHT22;63123;50.906;4.198;2024-02-26T00:24:31;17.10;55.20
74617;DHT22;63123;50.906;4.198;2024-02-26T00:26:58;17.10;55.10
74617;DHT22;63123;50.906;4.198;2024-02-26T00:29:24;17.10;55.10
74617;DHT22;63123;50.906;4.198;2024-02-26T00:31:51;17.10;55.30
74617;DHT22;63123;50.906;4.198;2024-02-26T00:34:16;17.10;55.20
74617;DHT22;63123;50.906;4.198;2024-02-26T00:36:42;17.10;55.80
74617;DHT22;63123;50.906;4.198;2024-02-26T00:39:07;17.10;55.10
74617;DHT22;63123;50.906;4.198;2024-02-26T00:41:33;17.10;55.20
74617;DHT22;63123;50.906;4.198;2024-02-26T00:43:58;17.10;55.20
74617;DHT22;63123;50.906;4.198;2024-02-26T00:46:24;17.10;55.20
74617;DHT22;63123;50.906;4.198;2024-02-26T00:48:50;17.10;55.40
74617;DHT22;63123;50.906;4.198;2024-02-26T00:51:15;17.10;55.30
74617;DHT22;63123;50.906;4.198;2024-02-26T00:53:41;17.10;55.30
74617;DHT22;63123;50.906;4.198;2024-02-26T00:56:06;17.10;55.50
74617;DHT22;63123;50.906;4.198;2024-02-26T00:58:32;17.10;55.40
74617;DHT22;63123;50.906;4.198;2024-02-26T01:00:58;17.10;55.30
74617;DHT22;63123;50.906;4.198;2024-02-26T01:03:23;17.10;56.00
74617;DHT22;63123;50.906;4.198;2024-02-26T01:05:49;17.10;55.40
74617;DHT22;63123;50.906;4.198;2024-02-26T01:08:14;17.10;55.50
74617;DHT22;63123;50.906;4.198;2024-02-26T01:10:40;17.10;55.40
74617;DHT22;63123;50.906;4.198;2024-02-26T01:13:05;17.00;55.40
74617;DHT22;63123;50.906;4.198;2024-02-26T01:15:32;17.10;55.50
74617;DHT22;63123;50.906;4.198;2024-02-26T01:17:58;17.00;55.40
74617;DHT22;63123;50.906;4.198;2024-02-26T01:20:23;17.10;55.40
74617;DHT22;63123;50.906;4.198;2024-02-26T01:22:49;17.10;55.50
74617;DHT22;63123;50.906;4.198;2024-02-26T01:25:14;17.10;55.40
74617;DHT22;63123;50.906;4.198;2024-02-26T01:27:41;17.10;55.40
74617;DHT22;63123;50.906;4.198;2024-02-26T01:30:08;17.10;55.50
74617;DHT22;63123;50.906;4.198;2024-02-26T01:32:33;17.10;55.50
74617;DHT22;63123;50.906;4.198;2024-02-26T01:34:59;17.10;55.60
74617;DHT22;63123;50.906;4.198;2024-02-26T01:37:24;17.00;55.40
74617;DHT22;63123;50.906;4.198;2024-02-26T01:39:50;17.00;55.50
74617;DHT22;63123;50.906;4.198;2024-02-26T01:42:15;17.10;55.50
74617;DHT22;63123;50.906;4.198;2024-02-26T01:44:41;17.00;55.40
74617;DHT22;63123;50.906;4.198;2024-02-26T01:47:08;17.10;55.50
74617;DHT22;63123;50.906;4.198;2024-02-26T01:49:35;17.10;55.50
74617;DHT22;63123;50.906;4.198;2024-02-26T01:52:01;17.00;55.60
74617;DHT22;63123;50.906;4.198;2024-02-26T01:54:28;17.10;55.70
74617;DHT22;63123;50.906;4.198;2024-02-26T01:56:54;17.10;55.70
74617;DHT22;63123;50.906;4.198;2024-02-26T01:59:20;17.10;55.70
74617;DHT22;63123;50.906;4.198;2024-02-26T02:01:47;17.00;55.70
74617;DHT22;63123;50.906;4.198;2024-02-26T02:04:13;17.00;55.70
74617;DHT22;63123;50.906;4.198;2024-02-26T02:06:39;17.00;55.80
74617;DHT22;63123;50.906;4.198;2024-02-26T02:09:07;17.10;55.80
74617;DHT22;63123;50.906;4.198;2024-02-26T02:11:33;17.10;55.90
74617;DHT22;63123;50.906;4.198;2024-02-26T02:13:59;17.10;55.90
74617;DHT22;63123;50.906;4.198;2024-02-26T02:16:24;17.10;55.90
74617;DHT22;63123;50.906;4.198;2024-02-26T02:18:50;17.00;55.80
74617;DHT22;63123;50.906;4.198;2024-02-26T02:21:16;17.10;55.90
74617;DHT22;63123;50.906;4.198;2024-02-26T02:23:41;17.00;55.90
74617;DHT22;63123;50.906;4.198;2024-02-26T02:26:11;17.00;56.00
74617;DHT22;63123;50.906;4.198;2024-02-26T02:28:37;17.00;55.90
74617;DHT22;63123;50.906;4.198;2024-02-26T02:31:04;17.00;55.80
74617;DHT22;63123;50.906;4.198;2024-02-26T02:33:30;17.10;55.90
74617;DHT22;63123;50.906;4.198;2024-02-26T02:35:55;17.10;55.90
74617;DHT22;63123;50.906;4.198;2024-02-26T02:38:21;17.10;55.90
74617;DHT22;63123;50.906;4.198;2024-02-26T02:40:46;17.10;55.90
74617;DHT22;63123;50.906;4.198;2024-02-26T02:43:12;17.10;55.90
74617;DHT22;63123;50.906;4.198;2024-02-26T02:45:37;17.10;55.90
74617;DHT22;63123;50.906;4.198;2024-02-26T02:48:03;17.00;55.80
74617;DHT22;63123;50.906;4.198;2024-02-26T02:50:29;17.10;55.90
74617;DHT22;63123;50.906;4.198;2024-02-26T02:52:54;17.10;56.10
74617;DHT22;63123;50.906;4.198;2024-02-26T02:55:20;17.10;55.90
74617;DHT22;63123;50.906;4.198;2024-02-26T02:57:45;17.10;55.90
74617;DHT22;63123;50.906;4.198;2024-02-26T03:00:11;17.10;55.90
74617;DHT22;63123;50.906;4.198;2024-02-26T03:02:37;17.10;56.00
74617;DHT22;63123;50.906;4.198;2024-02-26T03:05:03;17.10;56.00
74617;DHT22;63123;50.906;4.198;2024-02-26T03:07:29;17.10;56.60
74617;DHT22;63123;50.906;4.198;2024-02-26T03:09:54;17.10;55.90
74617;DHT22;63123;50.906;4.198;2024-02-26T03:12:20;17.10;56.00
74617;DHT22;63123;50.906;4.198;2024-02-26T03:14:45;17.10;56.10
74617;DHT22;63123;50.906;4.198;2024-02-26T03:17:11;17.10;56.00
74617;DHT22;63123;50.906;4.198;2024-02-26T03:19:36;17.00;56.00
74617;DHT22;63123;50.906;4.198;2024-02-26T03:22:02;17.00;56.10
74617;DHT22;63123;50.906;4.198;2024-02-26T03:24:27;17.00;56.00
74617;DHT22;63123;50.906;4.198;2024-02-26T03:26:53;17.10;56.00
74617;DHT22;63123;50.906;4.198;2024-02-26T03:29:19;17.10;56.10
74617;DHT22;63123;50.906;4.198;2024-02-26T03:31:44;17.10;56.00
74617;DHT22;63123;50.906;4.198;2024-02-26T03:34:10;17.10;56.00
74617;DHT22;63123;50.906;4.198;2024-02-26T03:36:37;17.10;56.10
74617;DHT22;63123;50.906;4.198;2024-02-26T03:39:03;17.00;56.00
74617;DHT22;63123;50.906;4.198;2024-02-26T03:41:35;17.10;56.10
74617;DHT22;63123;50.906;4.198;2024-02-26T03:44:01;17.10;56.10
74617;DHT22;63123;50.906;4.198;2024-02-26T03:46:26;17.10;56.20
74617;DHT22;63123;50.906;4.198;2024-02-26T03:48:52;17.10;56.20
74617;DHT22;63123;50.906;4.198;2024-02-26T03:51:17;17.00;56.10
74617;DHT22;63123;50.906;4.198;2024-02-26T03:53:43;17.10;56.10
74617;DHT22;63123;50.906;4.198;2024-02-26T03:56:08;17.10;56.20
74617;DHT22;63123;50.906;4.198;2024-02-26T03:58:36;17.10;56.10
74617;DHT22;63123;50.906;4.198;2024-02-26T04:01:01;17.10;56.10
74617;DHT22;63123;50.906;4.198;2024-02-26T04:03:27;17.00;56.20
74617;DHT22;63123;50.906;4.198;2024-02-26T04:05:52;17.10;56.20
74617;DHT22;63123;50.906;4.198;2024-02-26T04:08:18;17.10;56.20
74617;DHT22;63123;50.906;4.198;2024-02-26T04:10:43;17.00;56.10
74617;DHT22;63123;50.906;4.198;2024-02-26T04:13:09;17.10;56.10
74617;DHT22;63123;50.906;4.198;2024-02-26T04:15:34;17.10;56.10
74617;DHT22;63123;50.906;4.198;2024-02-26T04:18:00;17.10;56.10
74617;DHT22;63123;50.906;4.198;2024-02-26T04:20:25;17.10;56.30
74617;DHT22;63123;50.906;4.198;2024-02-26T04:22:51;17.00;56.10
74617;DHT22;63123;50.906;4.198;2024-02-26T04:25:16;17.00;56.20
74617;DHT22;63123;50.906;4.198;2024-02-26T04:27:42;17.00;56.10
74617;DHT22;63123;50.906;4.198;2024-02-26T04:30:07;17.00;56.10
74617;DHT22;63123;50.906;4.198;2024-02-26T04:32:33;17.10;56.40
74617;DHT22;63123;50.906;4.198;2024-02-26T04:35:00;17.00;56.10
74617;DHT22;63123;50.906;4.198;2024-02-26T04:37:25;17.10;56.20
74617;DHT22;63123;50.906;4.198;2024-02-26T04:39:59;17.00;56.10
74617;DHT22;63123;50.906;4.198;2024-02-26T04:42:25;17.00;56.20
74617;DHT22;63123;50.906;4.198;2024-02-26T04:44:51;17.00;56.10
74617;DHT22;63123;50.906;4.198;2024-02-26T04:47:16;17.10;56.10
74617;DHT22;63123;50.906;4.198;2024-02-26T04:49:42;17.00;56.10
74617;DHT22;63123;50.906;4.198;2024-02-26T04:52:07;17.00;56.10
74617;DHT22;63123;50.906;4.198;2024-02-26T04:54:33;17.00;56.10
74617;DHT22;63123;50.906;4.198;2024-02-26T04:56:58;17.10;56.10
74617;DHT22;63123;50.906;4.198;2024-02-26T04:59:24;17.00;56.20
74617;DHT22;63123;50.906;4.198;2024-02-26T05:01:49;17.00;56.10
74617;DHT22;63123;50.906;4.198;2024-02-26T05:04:16;17.10;56.30
74617;DHT22;63123;50.906;4.198;2024-02-26T05:06:42;17.00;56.20
74617;DHT22;63123;50.906;4.198;2024-02-26T05:09:07;17.00;56.10
74617;DHT22;63123;50.906;4.198;2024-02-26T05:11:33;17.00;56.10
74617;DHT22;63123;50.906;4.198;2024-02-26T05:13:59;17.10;56.40
74617;DHT22;63123;50.906;4.198;2024-02-26T05:16:26;17.10;56.40
74617;DHT22;63123;50.906;4.198;2024-02-26T05:18:52;17.00;56.40
74617;DHT22;63123;50.906;4.198;2024-02-26T05:21:18;17.10;56.60
74617;DHT22;63123;50.906;4.198;2024-02-26T05:23:43;17.10;56.60
74617;DHT22;63123;50.906;4.198;2024-02-26T05:26:09;17.10;56.70
74617;DHT22;63123;50.906;4.198;2024-02-26T05:28:35;17.10;56.80
74617;DHT22;63123;50.906;4.198;2024-02-26T05:31:01;17.10;56.80
74617;DHT22;63123;50.906;4.198;2024-02-26T05:33:26;17.00;56.80
74617;DHT22;63123;50.906;4.198;2024-02-26T05:35:52;17.10;57.10
74617;DHT22;63123;50.906;4.198;2024-02-26T05:38:17;17.00;56.90
74617;DHT22;63123;50.906;4.198;2024-02-26T05:40:43;17.10;57.00
74617;DHT22;63123;50.906;4.198;2024-02-26T05:43:08;17.00;56.90
74617;DHT22;63123;50.906;4.198;2024-02-26T05:45:34;17.00;56.80
74617;DHT22;63123;50.906;4.198;2024-02-26T05:47:59;17.10;56.90
74617;DHT22;63123;50.906;4.198;2024-02-26T05:50:25;17.10;56.90
74617;DHT22;63123;50.906;4.198;2024-02-26T05:52:50;17.10;56.80
74617;DHT22;63123;50.906;4.198;2024-02-26T05:55:16;17.00;56.80
74617;DHT22;63123;50.906;4.198;2024-02-26T05:57:41;17.10;56.90
74617;DHT22;63123;50.906;4.198;2024-02-26T06:00:07;17.00;56.70
74617;DHT22;63123;50.906;4.198;2024-02-26T06:02:33;17.10;56.70
74617;DHT22;63123;50.906;4.198;2024-02-26T06:04:58;17.00;56.80
74617;DHT22;63123;50.906;4.198;2024-02-26T06:07:24;17.00;56.70
74617;DHT22;63123;50.906;4.198;2024-02-26T06:09:50;17.10;56.80
74617;DHT22;63123;50.906;4.198;2024-02-26T06:12:15;17.10;56.70
74617;DHT22;63123;50.906;4.198;2024-02-26T06:14:41;17.10;56.70
74617;DHT22;63123;50.906;4.198;2024-02-26T06:17:07;17.00;56.70
74617;DHT22;63123;50.906;4.198;2024-02-26T06:19:32;17.00;56.70
74617;DHT22;63123;50.906;4.198;2024-02-26T06:21:58;17.00;57.30
74617;DHT22;63123;50.906;4.198;2024-02-26T06:24:23;17.10;56.80
74617;DHT22;63123;50.906;4.198;2024-02-26T06:26:49;17.00;56.60
74617;DHT22;63123;50.906;4.198;2024-02-26T06:29:14;17.10;56.50
74617;DHT22;63123;50.906;4.198;2024-02-26T06:31:40;17.10;56.60
74617;DHT22;63123;50.906;4.198;2024-02-26T06:34:05;17.00;56.40
74617;DHT22;63123;50.906;4.198;2024-02-26T06:36:31;17.10;56.40
74617;DHT22;63123;50.906;4.198;2024-02-26T06:38:57;17.00;56.40
74617;DHT22;63123;50.906;4.198;2024-02-26T06:41:23;17.00;56.40
74617;DHT22;63123;50.906;4.198;2024-02-26T06:43:53;17.00;56.40
74617;DHT22;63123;50.906;4.198;2024-02-26T06:46:19;17.00;56.40
74617;DHT22;63123;50.906;4.198;2024-02-26T06:48:44;17.10;56.50
74617;DHT22;63123;50.906;4.198;2024-02-26T06:51:09;17.00;56.30
74617;DHT22;63123;50.906;4.198;2024-02-26T06:53:35;17.00;56.40
74617;DHT22;63123;50.906;4.198;2024-02-26T06:56:00;17.00;56.30
74617;DHT22;63123;50.906;4.198;2024-02-26T06:58:26;17.00;56.20
74617;DHT22;63123;50.906;4.198;2024-02-26T07:00:51;17.00;56.30
74617;DHT22;63123;50.906;4.198;2024-02-26T07:03:17;17.00;56.30
74617;DHT22;63123;50.906;4.198;2024-02-26T07:05:42;17.00;56.30
74617;DHT22;63123;50.906;4.198;2024-02-26T07:08:10;17.00;56.10
74617;DHT22;63123;50.906;4.198;2024-02-26T07:10:35;17.00;56.20
74617;DHT22;63123;50.906;4.198;2024-02-26T07:13:01;17.00;56.20
74617;DHT22;63123;50.906;4.198;2024-02-26T07:15:26;17.10;56.20
74617;DHT22;63123;50.906;4.198;2024-02-26T07:17:52;17.10;56.20
74617;DHT22;63123;50.906;4.198;2024-02-26T07:20:17;17.10;56.30
74617;DHT22;63123;50.906;4.198;2024-02-26T07:22:43;17.00;56.30
74617;DHT22;63123;50.906;4.198;2024-02-26T07:25:09;17.00;56.20
74617;DHT22;63123;50.906;4.198;2024-02-26T07:27:38;17.00;56.20
74617;DHT22;63123;50.906;4.198;2024-02-26T07:30:04;17.00;56.40
74617;DHT22;63123;50.906;4.198;2024-02-26T07:32:29;17.10;56.40
74617;DHT22;63123;50.906;4.198;2024-02-26T07:34:55;17.00;56.40
74617;DHT22;63123;50.906;4.198;2024-02-26T07:37:20;17.00;56.40
74617;DHT22;63123;50.906;4.198;2024-02-26T07:39:46;17.00;56.30
74617;DHT22;63123;50.906;4.198;2024-02-26T07:42:12;17.00;56.20
74617;DHT22;63123;50.906;4.198;2024-02-26T07:44:37;17.00;56.20
74617;DHT22;63123;50.906;4.198;2024-02-26T07:47:03;17.00;56.30
74617;DHT22;63123;50.906;4.198;2024-02-26T07:49:29;17.00;56.90
74617;DHT22;63123;50.906;4.198;2024-02-26T07:51:54;17.00;56.30
74617;DHT22;63123;50.906;4.198;2024-02-26T07:54:23;17.00;56.40
74617;DHT22;63123;50.906;4.198;2024-02-26T07:56:48;17.10;56.80
74617;DHT22;63123;50.906;4.198;2024-02-26T07:59:14;17.10;56.40
74617;DHT22;63123;50.906;4.198;2024-02-26T08:01:41;17.00;56.20
74617;DHT22;63123;50.906;4.198;2024-02-26T08:04:07;17.10;56.30
74617;DHT22;63123;50.906;4.198;2024-02-26T08:06:32;17.00;56.30
74617;DHT22;63123;50.906;4.198;2024-02-26T08:08:58;17.00;56.30
74617;DHT22;63123;50.906;4.198;2024-02-26T08:11:23;17.10;56.30
74617;DHT22;63123;50.906;4.198;2024-02-26T08:13:49;17.00;56.40
74617;DHT22;63123;50.906;4.198;2024-02-26T08:16:14;17.00;56.20
74617;DHT22;63123;50.906;4.198;2024-02-26T08:18:39;17.00;56.10
74617;DHT22;63123;50.906;4.198;2024-02-26T08:21:05;17.00;56.20
74617;DHT22;63123;50.906;4.198;2024-02-26T08:23:31;17.00;56.00
74617;DHT22;63123;50.906;4.198;2024-02-26T08:25:57;17.10;56.10
74617;DHT22;63123;50.906;4.198;2024-02-26T08:28:22;17.00;56.10
74617;DHT22;63123;50.906;4.198;2024-02-26T08:30:48;17.00;56.10
74617;DHT22;63123;50.906;4.198;2024-02-26T08:33:14;17.00;56.00
74617;DHT22;63123;50.906;4.198;2024-02-26T08:35:39;17.10;56.20
74617;DHT22;63123;50.906;4.198;2024-02-26T08:38:04;17.10;56.10
74617;DHT22;63123;50.906;4.198;2024-02-26T08:40:30;17.10;55.90
74617;DHT22;63123;50.906;4.198;2024-02-26T08:42:55;17.10;55.90
74617;DHT22;63123;50.906;4.198;2024-02-26T08:45:21;17.00;56.00
74617;DHT22;63123;50.906;4.198;2024-02-26T08:47:47;17.00;55.90
74617;DHT22;63123;50.906;4.198;2024-02-26T08:50:13;17.00;56.10
74617;DHT22;63123;50.906;4.198;2024-02-26T08:52:39;17.00;55.90
74617;DHT22;63123;50.906;4.198;2024-02-26T08:55:05;17.10;56.10
74617;DHT22;63123;50.906;4.198;2024-02-26T08:57:31;17.10;56.00
74617;DHT22;63123;50.906;4.198;2024-02-26T08:59:59;17.00;55.80
74617;DHT22;63123;50.906;4.198;2024-02-26T09:02:25;17.10;55.90
74617;DHT22;63123;50.906;4.198;2024-02-26T09:04:51;17.00;55.90
74617;DHT22;63123;50.906;4.198;2024-02-26T09:07:18;17.10;55.90
74617;DHT22;63123;50.906;4.198;2024-02-26T09:09:44;17.10;55.80
74617;DHT22;63123;50.906;4.198;2024-02-26T09:12:09;17.00;55.90
74617;DHT22;63123;50.906;4.198;2024-02-26T09:14:35;17.00;55.90
74617;DHT22;63123;50.906;4.198;2024-02-26T09:17:00;17.00;55.90
74617;DHT22;63123;50.906;4.198;2024-02-26T09:19:26;17.10;55.80
74617;DHT22;63123;50.906;4.198;2024-02-26T09:21:53;17.00;55.80
74617;DHT22;63123;50.906;4.198;2024-02-26T09:24:22;17.00;55.70
74617;DHT22;63123;50.906;4.198;2024-02-26T09:26:48;17.00;56.30
74617;DHT22;63123;50.906;4.198;2024-02-26T09:29:14;17.00;55.90
74617;DHT22;63123;50.906;4.198;2024-02-26T09:31:39;17.00;55.80
74617;DHT22;63123;50.906;4.198;2024-02-26T09:34:06;17.00;55.90
74617;DHT22;63123;50.906;4.198;2024-02-26T09:36:33;17.00;55.70
74617;DHT22;63123;50.906;4.198;2024-02-26T09:38:58;17.00;55.70
74617;DHT22;63123;50.906;4.198;2024-02-26T09:41:24;17.00;56.00
74617;DHT22;63123;50.906;4.198;2024-02-26T09:43:52;17.10;55.80
74617;DHT22;63123;50.906;4.198;2024-02-26T09:46:21;17.10;55.70
74617;DHT22;63123;50.906;4.198;2024-02-26T09:48:46;17.00;55.70
74617;DHT22;63123;50.906;4.198;2024-02-26T09:51:12;17.10;55.80
74617;DHT22;63123;50.906;4.198;2024-02-26T09:53:39;17.00;55.60
74617;DHT22;63123;50.906;4.198;2024-02-26T09:56:08;17.00;55.60
74617;DHT22;63123;50.906;4.198;2024-02-26T09:58:33;17.00;55.80
74617;DHT22;63123;50.906;4.198;2024-02-26T10:01:00;17.00;55.60
74617;DHT22;63123;50.906;4.198;2024-02-26T10:03:31;17.10;55.80
74617;DHT22;63123;50.906;4.198;2024-02-26T10:05:57;17.10;55.60
74617;DHT22;63123;50.906;4.198;2024-02-26T10:08:23;17.00;55.50
74617;DHT22;63123;50.906;4.198;2024-02-26T10:10:49;17.10;55.70
74617;DHT22;63123;50.906;4.198;2024-02-26T10:13:15;17.00;55.70
74617;DHT22;63123;50.906;4.198;2024-02-26T10:15:41;17.10;55.70
74617;DHT22;63123;50.906;4.198;2024-02-26T10:18:06;17.10;55.60
74617;DHT22;63123;50.906;4.198;2024-02-26T10:20:32;17.10;55.70
74617;DHT22;63123;50.906;4.198;2024-02-26T10:22:58;17.10;55.60
74617;DHT22;63123;50.906;4.198;2024-02-26T10:25:23;17.10;55.60
74617;DHT22;63123;50.906;4.198;2024-02-26T10:27:49;17.00;55.50
74617;DHT22;63123;50.906;4.198;2024-02-26T10:30:18;17.10;55.50
74617;DHT22;63123;50.906;4.198;2024-02-26T10:32:44;17.10;55.60
74617;DHT22;63123;50.906;4.198;2024-02-26T10:35:11;17.10;55.60
74617;DHT22;63123;50.906;4.198;2024-02-26T10:37:36;17.10;55.60
74617;DHT22;63123;50.906;4.198;2024-02-26T10:40:02;17.00;55.40
74617;DHT22;63123;50.906;4.198;2024-02-26T10:42:28;17.00;55.70
74617;DHT22;63123;50.906;4.198;2024-02-26T10:44:53;17.10;55.50
74617;DHT22;63123;50.906;4.198;2024-02-26T10:47:19;17.00;55.60
74617;DHT22;63123;50.906;4.198;2024-02-26T10:49:46;17.00;55.60
74617;DHT22;63123;50.906;4.198;2024-02-26T10:52:13;17.00;55.50
74617;DHT22;63123;50.906;4.198;2024-02-26T10:54:39;17.10;55.50
74617;DHT22;63123;50.906;4.198;2024-02-26T10:57:06;17.10;55.60
74617;DHT22;63123;50.906;4.198;2024-02-26T10:59:33;17.10;55.40
74617;DHT22;63123;50.906;4.198;2024-02-26T11:02:00;17.00;55.30
74617;DHT22;63123;50.906;4.198;2024-02-26T11:04:25;17.00;55.40
74617;DHT22;63123;50.906;4.198;2024-02-26T11:06:52;17.00;55.30
74617;DHT22;63123;50.906;4.198;2024-02-26T11:09:20;17.00;55.30
74617;DHT22;63123;50.906;4.198;2024-02-26T11:11:48;17.00;55.30
74617;DHT22;63123;50.906;4.198;2024-02-26T11:14:13;17.00;55.30
74617;DHT22;63123;50.906;4.198;2024-02-26T11:16:39;17.00;55.50
74617;DHT22;63123;50.906;4.198;2024-02-26T11:19:06;17.10;55.20
74617;DHT22;63123;50.906;4.198;2024-02-26T11:21:34;17.10;55.30
74617;DHT22;63123;50.906;4.198;2024-02-26T11:24:07;17.10;55.50
74617;DHT22;63123;50.906;4.198;2024-02-26T11:26:34;17.00;55.50
74617;DHT22;63123;50.906;4.198;2024-02-26T11:29:01;17.10;55.30
74617;DHT22;63123;50.906;4.198;2024-02-26T11:31:27;17.10;55.80
74617;DHT22;63123;50.906;4.198;2024-02-26T11:33:53;17.10;55.70
74617;DHT22;63123;50.906;4.198;2024-02-26T11:36:19;17.10;55.80
74617;DHT22;63123;50.906;4.198;2024-02-26T11:38:45;17.10;56.00
74617;DHT22;63123;50.906;4.198;2024-02-26T11:41:15;17.10;56.00
74617;DHT22;63123;50.906;4.198;2024-02-26T11:46:27;17.10;56.30
74617;DHT22;63123;50.906;4.198;2024-02-26T11:48:54;17.10;56.30
74617;DHT22;63123;50.906;4.198;2024-02-26T11:51:24;17.10;56.50
74617;DHT22;63123;50.906;4.198;2024-02-26T11:53:50;17.10;56.30
74617;DHT22;63123;50.906;4.198;2024-02-26T11:59:02;17.10;56.20
74617;DHT22;63123;50.906;4.198;2024-02-26T12:01:37;17.00;56.10
74617;DHT22;63123;50.906;4.198;2024-02-26T12:04:06;17.00;56.10
74617;DHT22;63123;50.906;4.198;2024-02-26T12:06:48;17.10;55.90
74617;DHT22;63123;50.906;4.198;2024-02-26T12:09:30;17.10;55.90
74617;DHT22;63123;50.906;4.198;2024-02-26T12:11:55;17.10;55.50
74617;DHT22;63123;50.906;4.198;2024-02-26T12:14:24;17.10;55.50
74617;DHT22;63123;50.906;4.198;2024-02-26T12:16:50;17.10;55.60
74617;DHT22;63123;50.906;4.198;2024-02-26T12:19:16;17.10;55.60
74617;DHT22;63123;50.906;4.198;2024-02-26T12:21:42;17.10;55.60
74617;DHT22;63123;50.906;4.198;2024-02-26T12:24:14;17.10;55.70
74617;DHT22;63123;50.906;4.198;2024-02-26T12:26:40;17.10;55.40
74617;DHT22;63123;50.906;4.198;2024-02-26T12:29:06;17.10;55.40
74617;DHT22;63123;50.906;4.198;2024-02-26T12:31:32;17.00;55.80
74617;DHT22;63123;50.906;4.198;2024-02-26T12:33:58;17.10;55.40
74617;DHT22;63123;50.906;4.198;2024-02-26T12:36:24;17.10;55.50
74617;DHT22;63123;50.906;4.198;2024-02-26T12:38:50;17.10;55.40
74617;DHT22;63123;50.906;4.198;2024-02-26T12:41:16;17.10;55.40
74617;DHT22;63123;50.906;4.198;2024-02-26T12:43:42;17.10;55.40
74617;DHT22;63123;50.906;4.198;2024-02-26T12:46:07;17.10;55.30
74617;DHT22;63123;50.906;4.198;2024-02-26T12:48:33;17.10;55.30
74617;DHT22;63123;50.906;4.198;2024-02-26T12:50:59;17.10;55.60
74617;DHT22;63123;50.906;4.198;2024-02-26T12:53:25;17.10;55.90
74617;DHT22;63123;50.906;4.198;2024-02-26T12:55:51;17.10;55.40
74617;DHT22;63123;50.906;4.198;2024-02-26T12:58:16;17.10;55.20
74617;DHT22;63123;50.906;4.198;2024-02-26T13:00:42;17.00;55.10
74617;DHT22;63123;50.906;4.198;2024-02-26T13:03:08;17.10;55.30
74617;DHT22;63123;50.906;4.198;2024-02-26T13:05:34;17.10;55.20
74617;DHT22;63123;50.906;4.198;2024-02-26T13:08:00;17.10;55.10
74617;DHT22;63123;50.906;4.198;2024-02-26T13:10:27;17.10;55.20
74617;DHT22;63123;50.906;4.198;2024-02-26T13:12:52;17.10;55.10
74617;DHT22;63123;50.906;4.198;2024-02-26T13:15:19;17.10;55.20
74617;DHT22;63123;50.906;4.198;2024-02-26T13:17:45;17.10;55.10
74617;DHT22;63123;50.906;4.198;2024-02-26T13:20:10;17.10;55.20
74617;DHT22;63123;50.906;4.198;2024-02-26T13:22:36;17.10;55.30
74617;DHT22;63123;50.906;4.198;2024-02-26T13:25:02;17.10;55.70
74617;DHT22;63123;50.906;4.198;2024-02-26T13:27:28;17.10;55.10
74617;DHT22;63123;50.906;4.198;2024-02-26T13:32:33;17.00;55.20
74617;DHT22;63123;50.906;4.198;2024-02-26T13:35:06;17.10;55.20
74617;DHT22;63123;50.906;4.198;2024-02-26T13:37:33;17.10;55.10
74617;DHT22;63123;50.906;4.198;2024-02-26T13:39:58;17.10;55.40
74617;DHT22;63123;50.906;4.198;2024-02-26T13:42:24;17.10;55.10
74617;DHT22;63123;50.906;4.198;2024-02-26T13:44:49;17.10;55.40
74617;DHT22;63123;50.906;4.198;2024-02-26T13:47:15;17.10;55.20
74617;DHT22;63123;50.906;4.198;2024-02-26T13:49:41;17.10;55.40
74617;DHT22;63123;50.906;4.198;2024-02-26T13:52:07;17.10;55.10
74617;DHT22;63123;50.906;4.198;2024-02-26T13:54:32;17.10;55.30
74617;DHT22;63123;50.906;4.198;2024-02-26T13:56:58;17.10;55.30
74617;DHT22;63123;50.906;4.198;2024-02-26T13:59:24;17.10;55.00
74617;DHT22;63123;50.906;4.198;2024-02-26T14:01:49;17.10;55.20
74617;DHT22;63123;50.906;4.198;2024-02-26T14:04:15;17.10;55.10
74617;DHT22;63123;50.906;4.198;2024-02-26T14:06:42;17.10;55.10
74617;DHT22;63123;50.906;4.198;2024-02-26T14:09:07;17.10;55.20
74617;DHT22;63123;50.906;4.198;2024-02-26T14:11:33;17.10;55.00
74617;DHT22;63123;50.906;4.198;2024-02-26T14:13:59;17.10;55.10
74617;DHT22;63123;50.906;4.198;2024-02-26T14:16:24;17.10;55.10
74617;DHT22;63123;50.906;4.198;2024-02-26T14:18:50;17.10;55.00
74617;DHT22;63123;50.906;4.198;2024-02-26T14:21:15;17.10;55.20
74617;DHT22;63123;50.906;4.198;2024-02-26T14:23:41;17.10;55.10
74617;DHT22;63123;50.906;4.198;2024-02-26T14:26:07;17.10;55.10
74617;DHT22;63123;50.906;4.198;2024-02-26T14:28:33;17.10;55.10
74617;DHT22;63123;50.906;4.198;2024-02-26T14:30:59;17.10;55.50
74617;DHT22;63123;50.906;4.198;2024-02-26T14:33:25;17.10;55.30
74617;DHT22;63123;50.906;4.198;2024-02-26T14:35:50;17.10;55.10
74617;DHT22;63123;50.906;4.198;2024-02-26T14:38:16;17.10;55.20
74617;DHT22;63123;50.906;4.198;2024-02-26T14:40:41;17.10;55.30
74617;DHT22;63123;50.906;4.198;2024-02-26T14:43:07;17.10;55.20
74617;DHT22;63123;50.906;4.198;2024-02-26T14:45:35;17.10;55.20
74617;DHT22;63123;50.906;4.198;2024-02-26T14:48:00;17.10;55.10
74617;DHT22;63123;50.906;4.198;2024-02-26T14:50:26;17.10;55.10
74617;DHT22;63123;50.906;4.198;2024-02-26T14:52:51;17.10;55.00
74617;DHT22;63123;50.906;4.198;2024-02-26T14:55:17;17.10;55.10
74617;DHT22;63123;50.906;4.198;2024-02-26T14:57:42;17.10;55.20
74617;DHT22;63123;50.906;4.198;2024-02-26T15:00:08;17.10;55.00
74617;DHT22;63123;50.906;4.198;2024-02-26T15:02:35;17.10;55.20
74617;DHT22;63123;50.906;4.198;2024-02-26T15:05:00;17.10;55.10
74617;DHT22;63123;50.906;4.198;2024-02-26T15:07:26;17.10;55.20
74617;DHT22;63123;50.906;4.198;2024-02-26T15:09:51;17.10;55.40
74617;DHT22;63123;50.906;4.198;2024-02-26T15:12:21;17.10;55.20
74617;DHT22;63123;50.906;4.198;2024-02-26T15:14:47;17.10;55.20
74617;DHT22;63123;50.906;4.198;2024-02-26T15:17:12;17.10;55.20
74617;DHT22;63123;50.906;4.198;2024-02-26T15:19:39;17.00;55.10
74617;DHT22;63123;50.906;4.198;2024-02-26T15:22:04;17.00;55.10
74617;DHT22;63123;50.906;4.198;2024-02-26T15:24:30;17.00;55.10
74617;DHT22;63123;50.906;4.198;2024-02-26T15:26:55;17.10;55.30
74617;DHT22;63123;50.906;4.198;2024-02-26T15:29:22;17.10;55.20